createdAt,value
2022-10-22T00:00:10.661Z,6.20
2022-10-22T00:01:10.624Z,5.40
2022-10-22T00:02:10.621Z,5.50
2022-10-22T00:03:10.631Z,4.50
2022-10-22T00:04:10.716Z,5.20
2022-10-22T00:05:10.592Z,6.60
2022-10-22T00:06:10.603Z,5.40
2022-10-22T00:07:10.554Z,4.10
2022-10-22T00:08:10.549Z,4.70
2022-10-22T00:09:10.610Z,5.80
2022-10-22T00:10:10.601Z,7.60
2022-10-22T00:11:10.506Z,6.10
2022-10-22T00:12:10.519Z,6.80
2022-10-22T00:13:10.464Z,5.90
2022-10-22T00:14:10.480Z,5.70
2022-10-22T00:15:10.437Z,5.30
2022-10-22T00:16:10.508Z,4.70
2022-10-22T00:17:11.515Z,6.20
2022-10-22T00:18:10.418Z,5.70
2022-10-22T00:19:10.429Z,5.30
2022-10-22T00:20:10.390Z,5.90
2022-10-22T00:21:10.390Z,4.50
2022-10-22T00:22:10.403Z,5.70
2022-10-22T00:23:10.371Z,6.50
2022-10-22T00:24:10.333Z,5.50
2022-10-22T00:25:10.321Z,5.40
2022-10-22T00:26:10.302Z,7.70
2022-10-22T00:27:10.350Z,6.50
2022-10-22T00:28:10.333Z,6.90
2022-10-22T00:29:10.273Z,5.50
2022-10-22T00:30:10.260Z,6.40
2022-10-22T00:31:10.253Z,6.00
2022-10-22T00:32:10.246Z,5.90
2022-10-22T00:33:10.220Z,6.90
2022-10-22T00:34:10.248Z,6.00
2022-10-22T00:35:10.210Z,5.50
2022-10-22T00:36:10.184Z,6.40
2022-10-22T00:37:10.178Z,6.00
2022-10-22T00:38:10.160Z,4.80
2022-10-22T00:39:10.127Z,6.20
2022-10-22T00:40:10.181Z,6.00
2022-10-22T00:41:10.109Z,6.30
2022-10-22T00:42:10.102Z,6.30
2022-10-22T00:43:10.101Z,7.20
2022-10-22T00:44:10.093Z,5.90
2022-10-22T00:45:10.098Z,7.50
2022-10-22T00:46:10.082Z,7.00
2022-10-22T00:47:10.038Z,5.20
2022-10-22T00:48:10.043Z,4.30
2022-10-22T00:49:10.007Z,7.10
2022-10-22T00:50:09.993Z,5.60
2022-10-22T00:51:09.995Z,5.10
2022-10-22T00:52:10.012Z,7.20
2022-10-22T00:53:09.954Z,11.80
2022-10-22T00:54:09.968Z,4.30
2022-10-22T00:55:09.916Z,4.20
2022-10-22T00:56:09.947Z,6.50
2022-10-22T00:57:09.898Z,5.00
2022-10-22T00:58:09.926Z,6.90
2022-10-22T00:59:09.879Z,6.10
2022-10-22T01:00:09.899Z,6.70
2022-10-22T01:01:09.920Z,5.90
2022-10-22T01:02:09.850Z,6.20
2022-10-22T01:03:09.822Z,4.30
2022-10-22T01:04:09.851Z,6.00
2022-10-22T01:05:09.782Z,5.10
2022-10-22T01:06:09.822Z,5.30
2022-10-22T01:07:09.771Z,4.40
2022-10-22T01:09:09.771Z,5.70
2022-10-22T01:10:09.772Z,7.50
2022-10-22T01:11:09.720Z,5.00
2022-10-22T01:12:09.714Z,5.80
2022-10-22T01:13:09.683Z,5.50
2022-10-22T01:14:09.693Z,6.50
2022-10-22T01:15:09.673Z,6.70
2022-10-22T01:16:09.693Z,5.50
2022-10-22T01:17:09.744Z,5.10
2022-10-22T01:18:09.652Z,4.50
2022-10-22T01:19:09.623Z,4.30
2022-10-22T01:20:09.603Z,6.10
2022-10-22T01:21:09.581Z,6.10
2022-10-22T01:22:09.623Z,5.70
2022-10-22T01:23:09.567Z,4.30
2022-10-22T01:24:09.555Z,9.60
2022-10-22T01:25:09.539Z,4.70
2022-10-22T01:26:09.593Z,4.30
2022-10-22T01:27:09.496Z,4.00
2022-10-22T01:28:09.569Z,5.30
2022-10-22T01:29:09.480Z,7.60
2022-10-22T01:30:09.477Z,5.70
2022-10-22T01:31:09.446Z,5.70
2022-10-22T01:32:09.455Z,6.70
2022-10-22T01:33:09.436Z,5.50
2022-10-22T01:34:09.462Z,3.70
2022-10-22T01:35:09.401Z,5.50
2022-10-22T01:36:09.418Z,10.60
2022-10-22T01:37:09.367Z,4.90
2022-10-22T01:38:09.373Z,4.20
2022-10-22T01:39:09.336Z,5.80
2022-10-22T01:40:09.414Z,3.80
2022-10-22T01:41:09.324Z,4.50
2022-10-22T01:42:09.329Z,4.40
2022-10-22T01:43:09.290Z,4.00
2022-10-22T01:44:09.308Z,5.30
2022-10-22T01:45:09.267Z,2.80
2022-10-22T01:46:09.325Z,3.40
2022-10-22T01:47:09.246Z,3.70
2022-10-22T01:48:09.246Z,4.50
2022-10-22T01:49:09.211Z,4.80
2022-10-22T01:50:09.208Z,6.30
2022-10-22T01:51:09.242Z,3.00
2022-10-22T01:52:09.230Z,5.20
2022-10-22T01:53:09.169Z,3.60
2022-10-22T01:54:09.159Z,3.10
2022-10-22T01:55:09.157Z,3.50
2022-10-22T01:56:09.142Z,5.40
2022-10-22T01:57:09.109Z,3.80
2022-10-22T01:58:09.150Z,4.30
2022-10-22T01:59:09.082Z,4.30
2022-10-22T02:00:09.065Z,4.60
2022-10-22T02:01:09.109Z,3.50
2022-10-22T02:02:09.048Z,4.10
2022-10-22T02:03:09.049Z,4.40
2022-10-22T02:04:09.050Z,5.60
2022-10-22T02:05:09.011Z,5.60
2022-10-22T02:06:08.991Z,5.10
2022-10-22T02:07:08.993Z,3.70
2022-10-22T02:08:08.972Z,4.00
2022-10-22T02:09:09.066Z,3.20
2022-10-22T02:10:08.997Z,3.60
2022-10-22T02:11:08.941Z,4.70
2022-10-22T02:12:08.922Z,4.40
2022-10-22T02:13:08.922Z,6.00
2022-10-22T02:14:08.895Z,3.00
2022-10-22T02:15:08.892Z,4.20
2022-10-22T02:16:08.884Z,3.80
2022-10-22T02:17:08.869Z,6.10
2022-10-22T02:18:08.850Z,4.80
2022-10-22T02:19:08.834Z,5.20
2022-10-22T02:20:08.820Z,3.40
2022-10-22T02:22:08.829Z,4.20
2022-10-22T02:23:08.782Z,3.20
2022-10-22T02:24:08.765Z,4.40
2022-10-22T02:25:08.758Z,5.50
2022-10-22T02:26:08.727Z,5.40
2022-10-22T02:27:08.765Z,4.00
2022-10-22T02:28:08.752Z,3.50
2022-10-22T02:29:08.705Z,5.00
2022-10-22T02:30:08.702Z,4.10
2022-10-22T02:31:08.682Z,5.80
2022-10-22T02:32:08.656Z,3.20
2022-10-22T02:33:08.648Z,6.10
2022-10-22T02:34:08.725Z,4.50
2022-10-22T02:35:08.633Z,4.10
2022-10-22T02:36:08.604Z,3.80
2022-10-22T02:37:08.610Z,3.60
2022-10-22T02:38:08.594Z,5.10
2022-10-22T02:39:08.603Z,4.60
2022-10-22T02:40:08.597Z,4.00
2022-10-22T02:41:08.556Z,4.60
2022-10-22T02:42:08.520Z,4.30
2022-10-22T02:43:08.517Z,4.00
2022-10-22T02:44:08.493Z,3.90
2022-10-22T02:45:08.510Z,4.70
2022-10-22T02:46:08.512Z,5.00
2022-10-22T02:47:08.483Z,2.60
2022-10-22T02:48:08.460Z,4.70
2022-10-22T02:49:08.465Z,3.70
2022-10-22T02:50:10.293Z,4.30
2022-10-22T02:51:08.415Z,3.80
2022-10-22T02:52:08.426Z,4.30
2022-10-22T02:53:08.397Z,5.20
2022-10-22T02:54:08.365Z,6.90
2022-10-22T02:55:08.367Z,6.50
2022-10-22T02:56:08.385Z,6.30
2022-10-22T02:57:08.380Z,5.90
2022-10-22T02:58:08.355Z,4.90
2022-10-22T02:59:08.312Z,4.70
2022-10-22T03:00:08.283Z,5.60
2022-10-22T03:01:10.286Z,5.30
2022-10-22T03:02:08.271Z,5.60
2022-10-22T03:03:08.261Z,5.20
2022-10-22T03:04:08.263Z,5.10
2022-10-22T03:05:08.243Z,5.00
2022-10-22T03:06:08.212Z,4.60
2022-10-22T03:07:08.241Z,4.00
2022-10-22T03:08:08.181Z,3.20
2022-10-22T03:09:08.220Z,4.70
2022-10-22T03:10:08.200Z,4.10
2022-10-22T03:11:08.153Z,4.00
2022-10-22T03:12:08.157Z,4.50
2022-10-22T03:13:08.123Z,3.00
2022-10-22T03:14:08.143Z,3.40
2022-10-22T03:15:08.102Z,3.10
2022-10-22T03:16:08.113Z,2.60
2022-10-22T03:17:08.069Z,3.50
2022-10-22T03:18:08.056Z,4.50
2022-10-22T03:19:08.047Z,4.10
2022-10-22T03:20:08.025Z,2.20
2022-10-22T03:21:08.022Z,3.10
2022-10-22T03:22:08.041Z,4.30
2022-10-22T03:23:07.999Z,3.30
2022-10-22T03:24:07.977Z,3.90
2022-10-22T03:25:07.972Z,5.70
2022-10-22T03:26:07.943Z,2.20
2022-10-22T03:27:07.945Z,3.50
2022-10-22T03:28:07.944Z,3.70
2022-10-22T03:29:07.915Z,2.30
2022-10-22T03:30:07.913Z,3.40
2022-10-22T03:31:07.909Z,1.80
2022-10-22T03:32:07.862Z,2.60
2022-10-22T03:33:07.858Z,3.20
2022-10-22T03:34:07.876Z,2.10
2022-10-22T03:35:07.831Z,3.40
2022-10-22T03:36:07.811Z,2.50
2022-10-22T03:37:07.813Z,2.90
2022-10-22T03:38:07.802Z,2.40
2022-10-22T03:39:07.787Z,5.10
2022-10-22T03:40:07.784Z,3.40
2022-10-22T03:41:07.763Z,5.50
2022-10-22T03:42:07.997Z,3.50
2022-10-22T03:43:07.748Z,1.40
2022-10-22T03:44:07.724Z,3.60
2022-10-22T03:45:08.674Z,2.30
2022-10-22T03:46:07.728Z,2.10
2022-10-22T03:47:07.696Z,3.70
2022-10-22T03:48:07.659Z,5.30
2022-10-22T03:49:07.652Z,2.50
2022-10-22T03:50:07.635Z,2.50
2022-10-22T03:51:07.879Z,2.30
2022-10-22T03:52:07.631Z,3.20
2022-10-22T03:53:07.599Z,4.10
2022-10-22T03:54:07.575Z,1.80
2022-10-22T03:55:07.603Z,1.80
2022-10-22T03:56:07.558Z,2.80
2022-10-22T03:57:08.167Z,2.30
2022-10-22T03:58:07.546Z,1.70
2022-10-22T03:59:07.530Z,1.30
2022-10-22T04:00:07.495Z,3.20
2022-10-22T04:01:07.573Z,2.60
2022-10-22T04:02:07.478Z,3.30
2022-10-22T04:03:07.485Z,2.10
2022-10-22T04:04:07.523Z,1.90
2022-10-22T04:05:07.506Z,1.70
2022-10-22T04:06:07.589Z,3.30
2022-10-22T04:07:07.423Z,3.90
2022-10-22T04:08:07.624Z,0.80
2022-10-22T04:09:07.496Z,2.80
2022-10-22T04:10:07.366Z,2.40
2022-10-22T04:11:07.368Z,3.40
2022-10-22T04:12:07.338Z,2.00
2022-10-22T04:13:07.348Z,1.80
2022-10-22T04:14:07.318Z,3.10
2022-10-22T04:15:07.342Z,2.70
2022-10-22T04:16:07.286Z,0.90
2022-10-22T04:17:07.296Z,0.80
2022-10-22T04:18:07.261Z,3.10
2022-10-22T04:19:07.249Z,2.40
2022-10-22T04:20:08.130Z,1.10
2022-10-22T04:21:07.496Z,2.20
2022-10-22T04:22:07.200Z,1.80
2022-10-22T04:23:07.471Z,3.20
2022-10-22T04:24:07.182Z,4.00
2022-10-22T04:25:07.183Z,2.30
2022-10-22T04:26:07.190Z,1.40
2022-10-22T04:27:07.161Z,2.90
2022-10-22T04:28:07.139Z,1.70
2022-10-22T04:29:10.546Z,2.00
2022-10-22T04:30:07.120Z,3.10
2022-10-22T04:31:07.103Z,5.10
2022-10-22T04:32:07.118Z,2.60
2022-10-22T04:33:07.079Z,2.60
2022-10-22T04:34:07.106Z,1.70
2022-10-22T04:35:07.055Z,2.00
2022-10-22T04:36:07.029Z,3.10
2022-10-22T04:37:07.032Z,2.60
2022-10-22T04:38:07.037Z,3.90
2022-10-22T04:39:07.238Z,2.00
2022-10-22T04:40:06.988Z,1.30
2022-10-22T04:41:06.990Z,1.90
2022-10-22T04:42:06.974Z,2.00
2022-10-22T04:43:06.950Z,2.00
2022-10-22T04:44:09.920Z,2.00
2022-10-22T04:45:06.923Z,1.50
2022-10-22T04:46:06.890Z,3.80
2022-10-22T04:47:06.901Z,2.70
2022-10-22T04:48:06.908Z,0.90
2022-10-22T04:49:06.862Z,1.40
2022-10-22T04:50:06.902Z,2.50
2022-10-22T04:51:06.852Z,1.90
2022-10-22T04:52:06.828Z,1.20
2022-10-22T04:53:06.818Z,3.10
2022-10-22T04:54:06.806Z,2.30
2022-10-22T04:55:06.793Z,1.00
2022-10-22T04:56:06.815Z,2.40
2022-10-22T04:57:06.769Z,4.00
2022-10-22T04:58:06.758Z,2.60
2022-10-22T04:59:06.742Z,2.20
2022-10-22T05:00:06.744Z,1.80
2022-10-22T05:01:06.769Z,2.40
2022-10-22T05:02:06.722Z,1.50
2022-10-22T05:03:06.730Z,2.20
2022-10-22T05:04:06.689Z,4.10
2022-10-22T05:05:06.668Z,2.00
2022-10-22T05:06:06.674Z,1.90
2022-10-22T05:07:06.634Z,1.50
2022-10-22T05:08:06.637Z,2.90
2022-10-22T05:09:06.688Z,1.60
2022-10-22T05:10:06.576Z,1.70
2022-10-22T05:11:06.599Z,2.00
2022-10-22T05:12:06.563Z,1.60
2022-10-22T05:13:06.565Z,1.10
2022-10-22T05:14:06.556Z,1.90
2022-10-22T05:15:06.556Z,1.60
2022-10-22T05:16:06.511Z,3.00
2022-10-22T05:17:06.514Z,2.50
2022-10-22T05:18:06.497Z,2.40
2022-10-22T05:19:06.473Z,1.20
2022-10-22T05:20:06.503Z,1.40
2022-10-22T05:21:06.459Z,1.10
2022-10-22T05:22:06.426Z,1.80
2022-10-22T05:23:06.433Z,1.40
2022-10-22T05:24:06.415Z,0.90
2022-10-22T05:25:06.405Z,0.80
2022-10-22T05:26:06.421Z,2.20
2022-10-22T05:27:06.437Z,2.40
2022-10-22T05:28:06.364Z,1.10
2022-10-22T05:29:06.351Z,1.60
2022-10-22T05:30:06.313Z,1.60
2022-10-22T05:31:06.329Z,1.20
2022-10-22T05:32:06.373Z,1.90
2022-10-22T05:33:06.323Z,0.80
2022-10-22T05:34:06.279Z,1.50
2022-10-22T05:35:06.268Z,3.60
2022-10-22T05:36:06.228Z,1.10
2022-10-22T05:37:06.189Z,1.80
2022-10-22T05:38:06.239Z,2.50
2022-10-22T05:39:06.157Z,1.40
2022-10-22T05:40:19.352Z,0.80
2022-10-22T05:41:06.149Z,1.60
2022-10-22T05:42:06.110Z,2.30
2022-10-22T05:43:06.133Z,0.80
2022-10-22T05:44:06.367Z,2.50
2022-10-22T05:45:06.100Z,1.20
2022-10-22T05:46:06.062Z,1.70
2022-10-22T05:47:06.067Z,1.50
2022-10-22T05:48:06.063Z,1.00
2022-10-22T05:49:06.056Z,6.00
2022-10-22T05:50:06.035Z,2.20
2022-10-22T05:51:06.007Z,0.60
2022-10-22T05:52:06.025Z,1.00
2022-10-22T05:53:05.981Z,1.10
2022-10-22T05:54:05.960Z,0.70
2022-10-22T05:55:05.994Z,1.00
2022-10-22T05:56:05.976Z,0.70
2022-10-22T05:57:05.938Z,0.60
2022-10-22T05:58:05.892Z,1.00
2022-10-22T05:59:05.912Z,1.10
2022-10-22T06:00:05.887Z,0.70
2022-10-22T06:01:05.913Z,1.20
2022-10-22T06:02:05.936Z,1.80
2022-10-22T06:03:05.851Z,1.80
2022-10-22T06:04:05.854Z,0.70
2022-10-22T06:05:05.828Z,1.60
2022-10-22T06:06:05.802Z,1.50
2022-10-22T06:07:05.807Z,1.60
2022-10-22T06:08:05.838Z,1.90
2022-10-22T06:09:05.822Z,2.00
2022-10-22T06:10:05.753Z,0.90
2022-10-22T06:11:05.748Z,1.70
2022-10-22T06:12:05.731Z,0.90
2022-10-22T06:13:05.741Z,0.70
2022-10-22T06:14:05.741Z,1.00
2022-10-22T06:15:05.690Z,0.80
2022-10-22T06:16:05.706Z,0.80
2022-10-22T06:17:05.670Z,0.70
2022-10-22T06:18:05.704Z,1.00
2022-10-22T06:19:05.648Z,1.50
2022-10-22T06:21:05.613Z,1.00
2022-10-22T06:22:05.624Z,1.90
2022-10-22T06:23:05.579Z,2.20
2022-10-22T06:24:05.634Z,1.60
2022-10-22T06:25:05.549Z,2.40
2022-10-22T06:26:05.603Z,2.20
2022-10-22T06:27:05.543Z,1.10
2022-10-22T06:28:05.528Z,1.10
2022-10-22T06:29:05.506Z,0.80
2022-10-22T06:30:05.494Z,2.00
2022-10-22T06:31:05.474Z,6.10
2022-10-22T06:32:05.522Z,1.00
2022-10-22T06:33:05.438Z,1.10
2022-10-22T06:34:05.511Z,1.50
2022-10-22T06:35:05.419Z,1.20
2022-10-22T06:36:07.582Z,3.40
2022-10-22T06:37:05.393Z,2.30
2022-10-22T06:38:05.436Z,1.20
2022-10-22T06:39:05.365Z,2.20
2022-10-22T06:40:05.375Z,0.80
2022-10-22T06:41:05.347Z,3.20
2022-10-22T06:42:05.346Z,1.60
2022-10-22T06:43:05.335Z,1.40
2022-10-22T06:44:05.375Z,1.40
2022-10-22T06:45:05.331Z,2.40
2022-10-22T06:46:05.298Z,2.80
2022-10-22T06:47:05.256Z,1.50
2022-10-22T06:48:05.277Z,1.90
2022-10-22T06:49:05.236Z,1.90
2022-10-22T06:50:05.289Z,1.40
2022-10-22T06:51:05.445Z,1.80
2022-10-22T06:52:05.237Z,2.30
2022-10-22T06:53:05.178Z,0.90
2022-10-22T06:54:05.223Z,1.60
2022-10-22T06:55:06.121Z,2.80
2022-10-22T06:56:05.200Z,2.30
2022-10-22T06:57:05.157Z,3.20
2022-10-22T06:58:05.646Z,1.60
2022-10-22T06:59:05.121Z,0.80
2022-10-22T07:00:05.130Z,2.60
2022-10-22T07:01:05.196Z,3.10
2022-10-22T07:02:05.118Z,2.20
2022-10-22T07:03:05.087Z,2.80
2022-10-22T07:04:05.045Z,1.70
2022-10-22T07:05:05.038Z,2.20
2022-10-22T07:06:05.023Z,3.80
2022-10-22T07:07:05.068Z,3.10
2022-10-22T07:08:05.011Z,6.20
2022-10-22T07:09:05.064Z,4.80
2022-10-22T07:10:04.981Z,2.70
2022-10-22T07:11:04.946Z,1.90
2022-10-22T07:12:04.962Z,3.20
2022-10-22T07:13:04.947Z,2.10
2022-10-22T07:14:04.945Z,3.00
2022-10-22T07:15:04.907Z,2.50
2022-10-22T07:16:04.920Z,2.90
2022-10-22T07:17:04.884Z,2.00
2022-10-22T07:18:04.906Z,2.70
2022-10-22T07:19:04.843Z,2.80
2022-10-22T07:20:04.843Z,2.50
2022-10-22T07:21:04.829Z,1.60
2022-10-22T07:22:04.863Z,3.70
2022-10-22T07:23:04.790Z,1.90
2022-10-22T07:24:04.830Z,5.00
2022-10-22T07:25:07.234Z,3.20
2022-10-22T07:26:04.780Z,3.00
2022-10-22T07:27:07.040Z,3.60
2022-10-22T07:28:04.763Z,5.70
2022-10-22T07:29:04.749Z,5.30
2022-10-22T07:30:04.722Z,1.60
2022-10-22T07:31:04.704Z,1.60
2022-10-22T07:32:04.691Z,1.90
2022-10-22T07:33:04.658Z,4.40
2022-10-22T07:34:04.681Z,2.20
2022-10-22T07:35:04.665Z,3.60
2022-10-22T07:36:04.641Z,2.50
2022-10-22T07:37:04.634Z,3.00
2022-10-22T07:38:04.647Z,2.50
2022-10-22T07:39:04.601Z,2.50
2022-10-22T07:40:04.605Z,2.60
2022-10-22T07:41:04.568Z,2.70
2022-10-22T07:42:04.572Z,2.80
2022-10-22T07:43:04.528Z,1.70
2022-10-22T07:44:04.530Z,2.80
2022-10-22T07:45:04.508Z,4.00
2022-10-22T07:46:04.532Z,2.10
2022-10-22T07:47:04.516Z,2.70
2022-10-22T07:48:04.498Z,1.70
2022-10-22T07:49:04.451Z,3.90
2022-10-22T07:50:04.474Z,2.90
2022-10-22T07:51:04.543Z,2.90
2022-10-22T07:52:04.428Z,3.50
2022-10-22T07:53:04.408Z,3.10
2022-10-22T07:54:04.404Z,2.60
2022-10-22T07:55:10.899Z,3.50
2022-10-22T07:56:04.367Z,3.50
2022-10-22T07:57:04.430Z,4.30
2022-10-22T07:58:04.383Z,2.50
2022-10-22T07:59:04.364Z,3.60
2022-10-22T08:00:04.342Z,3.00
2022-10-22T08:01:04.319Z,4.00
2022-10-22T08:02:04.299Z,2.30
2022-10-22T08:03:04.309Z,3.10
2022-10-22T08:04:04.271Z,3.90
2022-10-22T08:05:04.245Z,2.20
2022-10-22T08:06:04.245Z,3.50
2022-10-22T08:07:04.206Z,3.70
2022-10-22T08:08:04.222Z,3.30
2022-10-22T08:09:04.204Z,3.90
2022-10-22T08:10:04.200Z,3.40
2022-10-22T08:11:04.172Z,3.20
2022-10-22T08:12:04.193Z,3.60
2022-10-22T08:13:04.152Z,3.60
2022-10-22T08:14:04.190Z,4.00
2022-10-22T08:15:04.115Z,2.60
2022-10-22T08:16:04.107Z,3.70
2022-10-22T08:17:04.083Z,5.00
2022-10-22T08:18:04.099Z,4.20
2022-10-22T08:19:04.113Z,3.60
2022-10-22T08:20:04.109Z,5.50
2022-10-22T08:21:04.056Z,3.50
2022-10-22T08:22:04.066Z,3.90
2022-10-22T08:23:04.005Z,5.10
2022-10-22T08:24:04.061Z,2.90
2022-10-22T08:25:03.999Z,5.40
2022-10-22T08:26:04.035Z,3.00
2022-10-22T08:27:03.963Z,5.10
2022-10-22T08:28:03.959Z,4.60
2022-10-22T08:29:03.925Z,3.20
2022-10-22T08:30:03.925Z,5.10
2022-10-22T08:31:03.918Z,5.60
2022-10-22T08:32:03.924Z,3.70
2022-10-22T08:33:03.894Z,4.90
2022-10-22T08:34:03.937Z,3.40
2022-10-22T08:35:03.867Z,3.70
2022-10-22T08:36:03.861Z,3.20
2022-10-22T08:37:03.862Z,3.20
2022-10-22T08:38:03.833Z,4.80
2022-10-22T08:39:03.809Z,4.10
2022-10-22T08:40:03.795Z,6.10
2022-10-22T08:41:03.778Z,5.40
2022-10-22T08:42:03.767Z,4.40
2022-10-22T08:43:03.810Z,7.30
2022-10-22T08:44:03.750Z,5.10
2022-10-22T08:45:03.738Z,4.70
2022-10-22T08:46:03.711Z,4.20
2022-10-22T08:47:03.731Z,4.40
2022-10-22T08:48:03.723Z,3.70
2022-10-22T08:49:03.718Z,5.80
2022-10-22T08:50:03.707Z,4.20
2022-10-22T08:51:03.642Z,6.00
2022-10-22T08:52:03.639Z,5.70
2022-10-22T08:53:03.631Z,3.90
2022-10-22T08:54:03.635Z,5.10
2022-10-22T08:55:03.596Z,4.10
2022-10-22T08:56:03.608Z,5.60
2022-10-22T08:57:03.567Z,4.90
2022-10-22T08:58:03.591Z,5.80
2022-10-22T08:59:03.582Z,5.20
2022-10-22T09:00:03.537Z,5.10
2022-10-22T09:01:03.521Z,4.60
2022-10-22T09:02:03.507Z,6.20
2022-10-22T09:03:03.479Z,6.90
2022-10-22T09:04:03.499Z,5.50
2022-10-22T09:05:03.481Z,5.70
2022-10-22T09:06:03.495Z,4.60
2022-10-22T09:07:03.441Z,3.80
2022-10-22T09:08:03.445Z,4.60
2022-10-22T09:09:03.462Z,5.20
2022-10-22T09:10:03.446Z,4.20
2022-10-22T09:11:03.376Z,4.60
2022-10-22T09:12:03.380Z,4.50
2022-10-22T09:13:03.351Z,4.40
2022-10-22T09:14:03.430Z,5.50
2022-10-22T09:15:03.320Z,6.10
2022-10-22T09:16:03.352Z,6.40
2022-10-22T09:17:03.322Z,4.40
2022-10-22T09:18:03.292Z,6.50
2022-10-22T09:19:03.283Z,6.00
2022-10-22T09:20:03.268Z,6.80
2022-10-22T09:21:03.297Z,4.40
2022-10-22T09:22:03.249Z,4.20
2022-10-22T09:23:03.230Z,4.20
2022-10-22T09:24:03.240Z,4.40
2022-10-22T09:25:03.195Z,4.30
2022-10-22T09:26:03.255Z,5.70
2022-10-22T09:27:03.243Z,6.10
2022-10-22T09:28:03.164Z,4.70
2022-10-22T09:29:03.167Z,6.50
2022-10-22T09:30:03.145Z,7.80
2022-10-22T09:31:03.131Z,6.00
2022-10-22T09:32:03.138Z,3.60
2022-10-22T09:33:03.101Z,5.30
2022-10-22T09:34:03.140Z,3.90
2022-10-22T09:35:03.070Z,4.50
2022-10-22T09:36:03.068Z,3.50
2022-10-22T09:37:03.128Z,4.90
2022-10-22T09:38:03.074Z,7.30
2022-10-22T09:39:03.071Z,6.00
2022-10-22T09:40:03.036Z,3.30
2022-10-22T09:41:03.051Z,7.00
2022-10-22T09:42:02.987Z,6.40
2022-10-22T09:43:03.060Z,4.60
2022-10-22T09:44:02.951Z,5.40
2022-10-22T09:45:02.954Z,5.90
2022-10-22T09:46:02.927Z,5.20
2022-10-22T09:47:02.914Z,6.50
2022-10-22T09:48:02.992Z,3.50
2022-10-22T09:49:02.923Z,3.60
2022-10-22T09:50:02.894Z,5.50
2022-10-22T09:51:02.870Z,4.80
2022-10-22T09:52:02.878Z,3.90
2022-10-22T09:53:02.826Z,4.50
2022-10-22T09:54:02.887Z,5.30
2022-10-22T09:55:02.808Z,4.70
2022-10-22T09:56:02.802Z,4.60
2022-10-22T09:57:02.773Z,4.00
2022-10-22T09:58:02.824Z,4.80
2022-10-22T09:59:03.656Z,4.70
2022-10-22T10:00:02.795Z,3.10
2022-10-22T10:01:02.852Z,4.90
2022-10-22T10:02:13.604Z,6.40
2022-10-22T10:03:02.768Z,6.50
2022-10-22T10:04:05.600Z,7.60
2022-10-22T10:05:02.724Z,4.40
2022-10-22T10:06:05.076Z,4.40
2022-10-22T10:07:02.888Z,5.20
2022-10-22T10:08:02.665Z,4.50
2022-10-22T10:09:02.650Z,4.00
2022-10-22T10:10:02.880Z,6.40
2022-10-22T10:11:02.884Z,4.90
2022-10-22T10:12:02.859Z,4.10
2022-10-22T10:13:02.570Z,7.60
2022-10-22T10:14:02.566Z,5.80
2022-10-22T10:15:02.535Z,5.50
2022-10-22T10:16:02.584Z,5.20
2022-10-22T10:17:02.517Z,6.50
2022-10-22T10:18:02.517Z,6.30
2022-10-22T10:19:02.491Z,4.00
2022-10-22T10:20:03.994Z,5.60
2022-10-22T10:21:02.798Z,3.30
2022-10-22T10:22:02.513Z,6.30
2022-10-22T10:23:02.434Z,5.40
2022-10-22T10:24:02.478Z,4.90
2022-10-22T10:25:02.402Z,6.50
2022-10-22T10:26:02.448Z,2.70
2022-10-22T10:27:02.431Z,4.40
2022-10-22T10:28:02.394Z,5.40
2022-10-22T10:29:02.392Z,5.40
2022-10-22T10:30:02.380Z,5.20
2022-10-22T10:31:02.501Z,2.90
2022-10-22T10:32:02.327Z,4.60
2022-10-22T10:33:02.379Z,4.80
2022-10-22T10:34:02.288Z,4.00
2022-10-22T10:35:02.294Z,5.40
2022-10-22T10:36:02.264Z,4.20
2022-10-22T10:37:02.264Z,5.40
2022-10-22T10:38:02.266Z,4.50
2022-10-22T10:39:02.264Z,4.90
2022-10-22T10:40:02.221Z,3.70
2022-10-22T10:41:02.239Z,3.40
2022-10-22T10:42:02.203Z,6.70
2022-10-22T10:43:02.203Z,2.70
2022-10-22T10:44:02.226Z,4.40
2022-10-22T10:45:02.190Z,5.50
2022-10-22T10:46:02.153Z,7.20
2022-10-22T10:47:02.148Z,7.60
2022-10-22T10:48:02.142Z,2.90
2022-10-22T10:49:02.151Z,3.70
2022-10-22T10:50:02.094Z,4.30
2022-10-22T10:51:02.105Z,4.10
2022-10-22T10:52:02.080Z,4.50
2022-10-22T10:53:02.080Z,5.00
2022-10-22T10:54:02.030Z,7.10
2022-10-22T10:55:02.100Z,5.90
2022-10-22T10:56:02.015Z,6.80
2022-10-22T10:57:02.035Z,4.30
2022-10-22T10:58:01.992Z,4.60
2022-10-22T10:59:01.979Z,5.70
2022-10-22T11:00:02.002Z,3.80
2022-10-22T11:01:01.977Z,3.60
2022-10-22T11:02:01.939Z,4.70
2022-10-22T11:03:01.930Z,5.40
2022-10-22T11:04:01.903Z,3.90
2022-10-22T11:05:01.921Z,6.20
2022-10-22T11:06:01.914Z,4.60
2022-10-22T11:07:10.935Z,5.50
2022-10-22T11:08:01.869Z,4.10
2022-10-22T11:09:01.914Z,5.20
2022-10-22T11:10:01.845Z,3.20
2022-10-22T11:11:01.862Z,6.60
2022-10-22T11:12:01.831Z,4.30
2022-10-22T11:13:01.803Z,6.50
2022-10-22T11:14:01.802Z,3.50
2022-10-22T11:15:01.790Z,7.00
2022-10-22T11:16:01.758Z,4.90
2022-10-22T11:17:01.752Z,6.80
2022-10-22T11:18:02.005Z,5.10
2022-10-22T11:19:01.738Z,3.40
2022-10-22T11:20:01.695Z,4.80
2022-10-22T11:21:01.700Z,4.40
2022-10-22T11:22:01.679Z,5.60
2022-10-22T11:23:18.633Z,5.10
2022-10-22T11:24:01.690Z,6.00
2022-10-22T11:25:01.687Z,4.80
2022-10-22T11:26:01.668Z,2.50
2022-10-22T11:27:01.639Z,5.30
2022-10-22T11:28:07.759Z,4.60
2022-10-22T11:29:01.606Z,4.10
2022-10-22T11:30:01.608Z,4.60
2022-10-22T11:31:01.574Z,8.70
2022-10-22T11:32:01.563Z,3.60
2022-10-22T11:33:01.546Z,7.10
2022-10-22T11:34:10.061Z,5.70
2022-10-22T11:35:01.553Z,6.50
2022-10-22T11:36:01.519Z,5.40
2022-10-22T11:37:01.510Z,4.80
2022-10-22T11:38:01.483Z,5.60
2022-10-22T11:39:01.503Z,7.80
2022-10-22T11:40:01.447Z,10.10
2022-10-22T11:41:01.437Z,6.00
2022-10-22T11:42:01.462Z,5.50
2022-10-22T11:43:01.403Z,5.20
2022-10-22T11:44:01.410Z,5.60
2022-10-22T11:45:01.419Z,4.60
2022-10-22T11:46:01.427Z,6.50
2022-10-22T11:47:01.364Z,4.50
2022-10-22T11:48:01.407Z,7.50
2022-10-22T11:49:01.340Z,4.30
2022-10-22T11:50:01.342Z,4.90
2022-10-22T11:51:01.337Z,6.60
2022-10-22T11:52:04.309Z,3.10
2022-10-22T11:53:01.448Z,4.50
2022-10-22T11:54:01.671Z,5.40
2022-10-22T11:55:01.264Z,6.00
2022-10-22T11:56:01.253Z,4.60
2022-10-22T11:57:01.236Z,5.90
2022-10-22T11:58:01.193Z,6.50
2022-10-22T11:59:01.294Z,6.50
2022-10-22T12:00:01.187Z,4.80
2022-10-22T12:01:01.216Z,4.90
2022-10-22T12:02:01.157Z,4.40
2022-10-22T12:03:01.181Z,4.70
2022-10-22T12:04:01.184Z,2.80
2022-10-22T12:05:01.183Z,6.00
2022-10-22T12:06:01.134Z,5.60
2022-10-22T12:07:01.104Z,4.90
2022-10-22T12:08:01.072Z,5.80
2022-10-22T12:09:01.135Z,4.20
2022-10-22T12:10:01.076Z,5.80
2022-10-22T12:11:01.078Z,6.30
2022-10-22T12:12:01.028Z,8.30
2022-10-22T12:13:01.113Z,5.60
2022-10-22T12:14:01.000Z,4.50
2022-10-22T12:15:00.994Z,3.10
2022-10-22T12:16:00.965Z,4.30
2022-10-22T12:17:01.023Z,4.40
2022-10-22T12:18:01.021Z,4.10
2022-10-22T12:19:00.942Z,4.90
2022-10-22T12:20:02.323Z,4.90
2022-10-22T12:21:01.041Z,4.80
2022-10-22T12:22:00.918Z,4.20
2022-10-22T12:23:00.929Z,4.20
2022-10-22T12:24:00.877Z,4.20
2022-10-22T12:25:00.870Z,6.20
2022-10-22T12:26:00.858Z,8.60
2022-10-22T12:27:00.878Z,5.90
2022-10-22T12:28:00.826Z,4.80
2022-10-22T12:29:00.879Z,5.00
2022-10-22T12:30:00.800Z,5.70
2022-10-22T12:31:00.804Z,3.70
2022-10-22T12:32:00.778Z,3.50
2022-10-22T12:33:00.782Z,6.10
2022-10-22T12:34:00.738Z,6.50
2022-10-22T12:35:00.799Z,4.80
2022-10-22T12:36:00.732Z,5.10
2022-10-22T12:37:00.720Z,3.90
2022-10-22T12:38:00.712Z,4.70
2022-10-22T12:39:00.697Z,5.30
2022-10-22T12:40:00.664Z,6.10
2022-10-22T12:41:01.460Z,4.40
2022-10-22T12:42:00.633Z,3.10
2022-10-22T12:43:00.685Z,5.80
2022-10-22T12:44:00.921Z,4.40
2022-10-22T12:45:00.889Z,4.80
2022-10-22T12:46:00.581Z,4.10
2022-10-22T12:47:00.637Z,2.80
2022-10-22T12:48:00.565Z,5.00
2022-10-22T12:49:00.555Z,4.40
2022-10-22T12:50:00.596Z,3.30
2022-10-22T12:51:00.527Z,4.80
2022-10-22T12:52:00.516Z,5.00
2022-10-22T12:53:00.775Z,10.70
2022-10-22T12:54:00.729Z,6.10
2022-10-22T12:55:00.480Z,10.00
2022-10-22T12:56:00.462Z,6.90
2022-10-22T12:57:00.502Z,5.80
2022-10-22T12:58:00.418Z,5.60
2022-10-22T12:59:00.461Z,3.50
2022-10-22T13:01:00.461Z,4.70
2022-10-22T13:02:00.371Z,7.60
2022-10-22T13:03:00.420Z,6.60
2022-10-22T13:04:00.369Z,5.20
2022-10-22T13:05:00.399Z,7.10
2022-10-22T13:06:00.573Z,6.40
2022-10-22T13:07:00.332Z,11.20
2022-10-22T13:08:00.524Z,15.30
2022-10-22T13:09:01.104Z,84.00
2022-10-22T13:10:00.283Z,18.70
2022-10-22T13:11:01.192Z,7.80
2022-10-22T13:12:00.248Z,8.00
2022-10-22T13:13:00.297Z,101.60
2022-10-22T13:14:00.215Z,184.60
2022-10-22T13:15:00.261Z,282.80
2022-10-22T13:16:00.210Z,51.30
2022-10-22T13:17:00.236Z,15.10
2022-10-22T13:18:00.171Z,10.90
2022-10-22T13:19:00.206Z,24.20
2022-10-22T13:20:00.142Z,42.90
2022-10-22T13:21:00.152Z,251.20